OLV weather

Olive Branch Airport
Olive Branch, Mississippi, United States

Public forecast

Using degrees Fahrenheit for public forecast. Weather courtesy of forecast.io.

Current aviation weather report (METAR) for Olive Branch Airport

Retrieved 2019/10/23 18:50 UTC (22 minutes ago):

KOLV 231850Z 18010KT 10SM SKC 21/01 A3014

Closest aviation forecast (TAF) to Olive Branch Airport

Closest forecast is Memphis International Airport, 10.1 nm (18.7 km) WNW. Retrieved 2019/10/23 18:22 UTC (50 minutes ago):

TAF KMEM 231720Z 2318/2424 19009KT P6SM SKC FM240000 16005KT P6SM SKC